Time;durP1;ratioP1;P1;durP2;ratioP2;P2;SDS_P1;SDS_P2;PMS_P1;PMS_P2;Temp;Humidity;BMP_temperature;BMP_pressure;BME280_temperature;BME280_humidity;BME280_pressure;Samples;Min_cycle;Max_cycle;Signal;HPM_P1;HPM_P2
2024/03/22 00:01:45;;;;;;;15.25;9.02;;;;;;;;;;5086028;28;20473;-58
2024/03/22 00:04:11;;;;;;;14.88;8.65;;;;;;;;;;5074719;28;20024;-58
2024/03/22 00:06:37;;;;;;;15.70;8.68;;;;;;;;;;5073326;28;20031;-58
2024/03/22 00:09:03;;;;;;;18.85;9.55;;;;;;;;;;5092299;28;20032;-56
2024/03/22 00:11:29;;;;;;;15.95;8.43;;;;;;;;;;5094439;28;20035;-58
2024/03/22 00:13:55;;;;;;;15.05;8.45;;;;;;;;;;5093936;28;20035;-58
2024/03/22 00:16:21;;;;;;;14.73;8.73;;;;;;;;;;5081986;28;20032;-58
2024/03/22 00:18:47;;;;;;;17.45;9.32;;;;;;;;;;5073882;28;20103;-51
2024/03/22 00:21:13;;;;;;;18.25;10.60;;;;;;;;;;5084326;28;20059;-52
2024/03/22 00:23:39;;;;;;;20.02;10.13;;;;;;;;;;5093905;28;20067;-51
2024/03/22 00:26:05;;;;;;;18.63;10.75;;;;;;;;;;5094140;28;20028;-52
2024/03/22 00:28:31;;;;;;;17.13;10.05;;;;;;;;;;5094062;28;20519;-51
2024/03/22 00:30:57;;;;;;;17.38;9.95;;;;;;;;;;5093895;28;20023;-52
2024/03/22 00:33:23;;;;;;;19.20;10.25;;;;;;;;;;5078225;28;20029;-51
2024/03/22 00:35:49;;;;;;;17.15;9.40;;;;;;;;;;5085000;28;20077;-52
2024/03/22 00:38:15;;;;;;;15.52;9.25;;;;;;;;;;5096721;28;20027;-53
2024/03/22 00:40:41;;;;;;;18.73;9.60;;;;;;;;;;5093685;28;20024;-51
2024/03/22 00:43:07;;;;;;;17.58;10.02;;;;;;;;;;5093257;28;20027;-51
2024/03/22 00:45:33;;;;;;;19.67;10.23;;;;;;;;;;5093548;28;20047;-54
2024/03/22 00:47:59;;;;;;;17.50;10.07;;;;;;;;;;5093654;28;20377;-52
2024/03/22 00:50:25;;;;;;;20.15;9.90;;;;;;;;;;5091460;28;20035;-52
2024/03/22 00:52:52;;;;;;;20.20;9.82;;;;;;;;;;5093224;28;20062;-51
2024/03/22 00:55:18;;;;;;;18.83;9.80;;;;;;;;;;5093706;28;20020;-52
2024/03/22 00:57:44;;;;;;;18.75;9.48;;;;;;;;;;5093677;28;20072;-53
2024/03/22 01:00:10;;;;;;;17.27;9.55;;;;;;;;;;5093326;28;20024;-51
2024/03/22 01:02:36;;;;;;;19.60;10.02;;;;;;;;;;5092867;28;20030;-51
2024/03/22 01:05:02;;;;;;;20.42;10.40;;;;;;;;;;5093254;28;20477;-51
2024/03/22 01:07:28;;;;;;;25.05;10.95;;;;;;;;;;5085897;28;20031;-51
2024/03/22 01:09:54;;;;;;;19.83;10.38;;;;;;;;;;5093338;28;20028;-51
2024/03/22 01:12:20;;;;;;;21.70;10.65;;;;;;;;;;5093782;28;20039;-50
2024/03/22 01:14:45;;;;;;;20.85;10.93;;;;;;;;;;5109621;28;20024;-52
2024/03/22 01:17:11;;;;;;;22.33;10.70;;;;;;;;;;5093204;28;20102;-51
2024/03/22 01:19:37;;;;;;;24.00;11.07;;;;;;;;;;5092851;28;20380;-51
2024/03/22 01:22:03;;;;;;;19.90;11.15;;;;;;;;;;5080406;28;20068;-50
2024/03/22 01:24:29;;;;;;;22.60;10.57;;;;;;;;;;5073173;28;20112;-51
2024/03/22 01:26:55;;;;;;;23.10;11.80;;;;;;;;;;5092944;28;20487;-53
2024/03/22 01:29:21;;;;;;;19.95;10.88;;;;;;;;;;5093165;28;20039;-52
2024/03/22 01:31:48;;;;;;;21.20;10.77;;;;;;;;;;5092062;28;20032;-50
2024/03/22 01:34:14;;;;;;;22.58;11.35;;;;;;;;;;5092270;28;20036;-53
2024/03/22 01:36:40;;;;;;;23.70;11.73;;;;;;;;;;5081190;28;20047;-53
2024/03/22 01:39:06;;;;;;;21.50;10.90;;;;;;;;;;5092670;28;20028;-52
2024/03/22 01:41:32;;;;;;;22.73;11.52;;;;;;;;;;5082383;28;20400;-52
2024/03/22 01:43:58;;;;;;;24.83;12.18;;;;;;;;;;5089429;28;20036;-51
2024/03/22 01:46:25;;;;;;;24.15;11.63;;;;;;;;;;5092147;28;20483;-52
2024/03/22 01:48:51;;;;;;;26.08;12.05;;;;;;;;;;5092419;28;20039;-52
2024/03/22 01:51:18;;;;;;;23.05;11.43;;;;;;;;;;5083734;28;20837;-53
2024/03/22 01:53:44;;;;;;;24.00;11.60;;;;;;;;;;5092125;28;20024;-54
2024/03/22 01:56:11;;;;;;;22.77;10.93;;;;;;;;;;5101998;28;20475;-53
2024/03/22 01:58:37;;;;;;;22.67;10.30;;;;;;;;;;5096166;28;20056;-51
2024/03/22 02:01:03;;;;;;;21.38;11.02;;;;;;;;;;5091445;28;20035;-54
2024/03/22 02:03:29;;;;;;;21.00;10.30;;;;;;;;;;5091992;28;20035;-51
2024/03/22 02:05:55;;;;;;;21.20;10.77;;;;;;;;;;5087083;28;20372;-52
2024/03/22 02:08:21;;;;;;;19.58;10.27;;;;;;;;;;5095771;28;20034;-50
2024/03/22 02:10:47;;;;;;;20.42;10.82;;;;;;;;;;5100328;28;20107;-54
2024/03/22 02:13:13;;;;;;;21.55;11.25;;;;;;;;;;5091775;28;20032;-52
2024/03/22 02:15:39;;;;;;;27.70;11.48;;;;;;;;;;5083741;28;20016;-49
2024/03/22 02:18:05;;;;;;;23.75;11.98;;;;;;;;;;5092801;28;20089;-54
2024/03/22 02:20:31;;;;;;;20.83;10.52;;;;;;;;;;5091023;28;20020;-54
2024/03/22 02:22:57;;;;;;;17.33;9.85;;;;;;;;;;5090195;28;20036;-50
2024/03/22 02:25:23;;;;;;;23.35;10.40;;;;;;;;;;5084766;28;20028;-54
2024/03/22 02:27:50;;;;;;;23.77;10.98;;;;;;;;;;5086015;28;20197;-52
2024/03/22 02:30:16;;;;;;;20.90;10.18;;;;;;;;;;5092039;28;20032;-51
2024/03/22 02:32:42;;;;;;;22.05;10.23;;;;;;;;;;5085043;28;20396;-53
2024/03/22 02:35:08;;;;;;;19.75;9.65;;;;;;;;;;5086408;28;20023;-53
2024/03/22 02:37:34;;;;;;;21.55;10.45;;;;;;;;;;5092413;28;20039;-58
2024/03/22 02:40:00;;;;;;;22.08;10.32;;;;;;;;;;5091462;28;20383;-58
2024/03/22 02:42:26;;;;;;;25.15;10.35;;;;;;;;;;5091617;28;20044;-58
2024/03/22 02:44:53;;;;;;;22.73;10.45;;;;;;;;;;5096129;28;20013;-59
2024/03/22 02:47:19;;;;;;;19.17;9.50;;;;;;;;;;5094562;28;20479;-60
2024/03/22 02:49:45;;;;;;;21.52;10.55;;;;;;;;;;5075860;28;20040;-58
2024/03/22 02:52:11;;;;;;;22.02;10.10;;;;;;;;;;5075046;28;20095;-58
2024/03/22 02:54:37;;;;;;;20.95;9.60;;;;;;;;;;5075816;28;20013;-58
2024/03/22 02:57:03;;;;;;;20.50;10.32;;;;;;;;;;5075836;28;20024;-58
2024/03/22 02:59:29;;;;;;;26.70;11.68;;;;;;;;;;5075552;28;20063;-59
2024/03/22 03:01:55;;;;;;;20.50;10.52;;;;;;;;;;5075604;28;20062;-59
2024/03/22 03:04:21;;;;;;;22.27;11.00;;;;;;;;;;5081342;28;20077;-59
2024/03/22 03:06:47;;;;;;;20.63;10.73;;;;;;;;;;5093746;28;20032;-59
2024/03/22 03:09:13;;;;;;;21.75;9.63;;;;;;;;;;5095332;28;20023;-59
2024/03/22 03:11:40;;;;;;;21.02;9.75;;;;;;;;;;5095675;28;20021;-58
2024/03/22 03:14:06;;;;;;;28.85;11.40;;;;;;;;;;5094007;28;20028;-56
2024/03/22 03:16:32;;;;;;;22.10;10.57;;;;;;;;;;5083938;28;20024;-58
2024/03/22 03:18:58;;;;;;;21.60;10.27;;;;;;;;;;5095291;28;20028;-58
2024/03/22 03:21:24;;;;;;;22.65;10.02;;;;;;;;;;5094721;28;20052;-55
2024/03/22 03:23:50;;;;;;;21.13;10.32;;;;;;;;;;5087505;28;20114;-59
2024/03/22 03:26:16;;;;;;;22.48;10.77;;;;;;;;;;5095202;28;20040;-58
2024/03/22 03:28:42;;;;;;;21.48;10.57;;;;;;;;;;5095433;28;20032;-59
2024/03/22 03:31:08;;;;;;;23.38;10.20;;;;;;;;;;5095142;28;20017;-58
2024/03/22 03:33:34;;;;;;;21.25;10.57;;;;;;;;;;5092080;28;20031;-59
2024/03/22 03:35:59;;;;;;;19.30;10.00;;;;;;;;;;5079864;28;20024;-59
2024/03/22 03:38:25;;;;;;;24.23;10.68;;;;;;;;;;5090487;28;20020;-58
2024/03/22 03:40:51;;;;;;;21.58;9.88;;;;;;;;;;5095107;28;20028;-59
2024/03/22 03:43:17;;;;;;;21.15;9.85;;;;;;;;;;5094309;28;20387;-58
2024/03/22 03:45:43;;;;;;;19.63;9.10;;;;;;;;;;5094894;28;20384;-58
2024/03/22 03:48:09;;;;;;;20.73;10.38;;;;;;;;;;5094537;28;20472;-52
2024/03/22 03:50:35;;;;;;;21.25;9.50;;;;;;;;;;5094859;28;20028;-51
2024/03/22 03:53:01;;;;;;;21.73;10.55;;;;;;;;;;5092831;28;20051;-52
2024/03/22 03:55:27;;;;;;;20.73;10.48;;;;;;;;;;5093723;28;20024;-52
2024/03/22 03:57:53;;;;;;;23.38;10.07;;;;;;;;;;5094653;28;20099;-53
2024/03/22 04:00:20;;;;;;;19.52;10.15;;;;;;;;;;5093524;28;20437;-52
2024/03/22 04:02:46;;;;;;;22.00;9.93;;;;;;;;;;5093800;28;20093;-51
2024/03/22 04:05:12;;;;;;;18.58;9.52;;;;;;;;;;5080530;28;20078;-53
2024/03/22 04:07:39;;;;;;;22.88;10.00;;;;;;;;;;5080620;28;20410;-52
2024/03/22 04:10:06;;;;;;;17.70;9.18;;;;;;;;;;5094657;28;20466;-54
2024/03/22 04:12:32;;;;;;;19.02;9.00;;;;;;;;;;5093809;28;20163;-53
2024/03/22 04:14:58;;;;;;;21.15;9.57;;;;;;;;;;5094341;28;20024;-52
2024/03/22 04:17:24;;;;;;;17.95;9.00;;;;;;;;;;5094327;28;20020;-51
2024/03/22 04:19:50;;;;;;;23.88;10.63;;;;;;;;;;5087695;28;20033;-53
2024/03/22 04:22:16;;;;;;;20.73;9.77;;;;;;;;;;5077002;28;20473;-54
2024/03/22 04:24:42;;;;;;;19.52;9.68;;;;;;;;;;5094313;28;20031;-53
2024/03/22 04:27:08;;;;;;;21.15;10.13;;;;;;;;;;5094192;28;20376;-51
2024/03/22 04:29:34;;;;;;;19.17;9.27;;;;;;;;;;5094151;28;20446;-52
2024/03/22 04:32:00;;;;;;;18.63;8.73;;;;;;;;;;5093892;28;20039;-50
2024/03/22 04:34:26;;;;;;;21.25;10.07;;;;;;;;;;5093684;28;20069;-53
2024/03/22 04:36:52;;;;;;;18.00;9.35;;;;;;;;;;5100925;28;20028;-53
2024/03/22 04:39:19;;;;;;;19.73;9.13;;;;;;;;;;5093186;28;20107;-51
2024/03/22 04:41:45;;;;;;;22.25;8.70;;;;;;;;;;5090614;28;20040;-53
2024/03/22 04:44:11;;;;;;;21.15;9.82;;;;;;;;;;5091628;28;20475;-52
2024/03/22 04:46:37;;;;;;;20.70;9.52;;;;;;;;;;5093674;28;20494;-53
2024/03/22 04:49:03;;;;;;;19.05;9.00;;;;;;;;;;5092969;28;20483;-54
2024/03/22 04:51:29;;;;;;;20.17;9.65;;;;;;;;;;5073082;28;20376;-52
2024/03/22 04:53:55;;;;;;;16.80;9.07;;;;;;;;;;5088616;28;20093;-53
2024/03/22 04:56:21;;;;;;;19.27;9.93;;;;;;;;;;5080472;28;20024;-51
2024/03/22 04:58:47;;;;;;;19.25;9.15;;;;;;;;;;5093547;28;20723;-50
2024/03/22 05:01:14;;;;;;;21.00;8.95;;;;;;;;;;5082500;28;20041;-52
2024/03/22 05:03:41;;;;;;;19.05;9.77;;;;;;;;;;5080829;28;20031;-52
2024/03/22 05:06:07;;;;;;;20.23;9.27;;;;;;;;;;5091663;28;20116;-51
2024/03/22 05:08:33;;;;;;;20.80;9.48;;;;;;;;;;5087602;28;20028;-54
2024/03/22 05:10:59;;;;;;;22.77;9.65;;;;;;;;;;5089809;28;20032;-53
2024/03/22 05:13:25;;;;;;;19.48;9.63;;;;;;;;;;5090040;28;20397;-52
2024/03/22 05:15:51;;;;;;;18.27;10.77;;;;;;;;;;5086901;28;20032;-53
2024/03/22 05:18:17;;;;;;;19.60;9.38;;;;;;;;;;5087065;28;20028;-51
2024/03/22 05:20:43;;;;;;;22.45;7.68;;;;;;;;;;5087147;28;20054;-52
2024/03/22 05:23:09;;;;;;;18.63;9.50;;;;;;;;;;5087965;28;20514;-52
2024/03/22 05:25:35;;;;;;;21.52;9.95;;;;;;;;;;5081724;28;20120;-51
2024/03/22 05:28:01;;;;;;;17.45;8.60;;;;;;;;;;5091555;28;20089;-52
2024/03/22 05:30:27;;;;;;;22.20;9.15;;;;;;;;;;5091765;28;20115;-51
2024/03/22 05:32:53;;;;;;;18.38;8.60;;;;;;;;;;5090879;28;20140;-54
2024/03/22 05:35:19;;;;;;;23.17;9.73;;;;;;;;;;5089576;28;20035;-53
2024/03/22 05:37:45;;;;;;;16.35;8.70;;;;;;;;;;5091551;28;20081;-53
2024/03/22 05:40:11;;;;;;;16.98;8.48;;;;;;;;;;5078493;28;20095;-52
2024/03/22 05:42:37;;;;;;;21.52;8.90;;;;;;;;;;5086820;28;20036;-52
2024/03/22 05:45:03;;;;;;;15.20;8.38;;;;;;;;;;5089285;28;20024;-51
2024/03/22 05:47:31;;;;;;;15.75;8.77;;;;;;;;;;5091161;28;20036;-53
2024/03/22 05:49:57;;;;;;;18.40;9.13;;;;;;;;;;5092084;28;20043;-52
2024/03/22 05:52:23;;;;;;;17.67;8.65;;;;;;;;;;5090785;28;20020;-53
2024/03/22 05:54:49;;;;;;;22.13;9.75;;;;;;;;;;5090508;28;20039;-51
2024/03/22 05:57:15;;;;;;;19.27;8.95;;;;;;;;;;5091688;28;20028;-52
2024/03/22 05:59:41;;;;;;;18.08;8.90;;;;;;;;;;5090801;28;20047;-53
2024/03/22 06:02:07;;;;;;;17.80;8.38;;;;;;;;;;5090156;28;20138;-55
2024/03/22 06:04:33;;;;;;;18.48;9.27;;;;;;;;;;5091362;28;20129;-55
2024/03/22 06:06:59;;;;;;;16.77;8.43;;;;;;;;;;5091051;28;20028;-53
2024/03/22 06:12:12;;;;;;;17.80;8.50;;;;;;;;;;5090124;28;20115;-58
2024/03/22 06:14:38;;;;;;;25.05;9.98;;;;;;;;;;5090519;28;20035;-57
2024/03/22 06:17:04;;;;;;;23.63;8.13;;;;;;;;;;5089446;28;20573;-58
2024/03/22 06:19:30;;;;;;;20.02;8.68;;;;;;;;;;5085416;28;20103;-58
2024/03/22 06:21:56;;;;;;;15.85;8.13;;;;;;;;;;5090858;28;20444;-59
2024/03/22 06:24:22;;;;;;;18.80;9.65;;;;;;;;;;5087763;28;20035;-59
2024/03/22 06:26:49;;;;;;;17.85;8.93;;;;;;;;;;5091442;28;20073;-58
2024/03/22 06:29:16;;;;;;;19.63;9.43;;;;;;;;;;5089489;28;20016;-58
2024/03/22 06:31:42;;;;;;;16.88;8.73;;;;;;;;;;5087443;28;20028;-58
2024/03/22 06:34:08;;;;;;;18.25;8.38;;;;;;;;;;5090284;28;20376;-58
2024/03/22 06:36:34;;;;;;;18.20;9.25;;;;;;;;;;5091910;28;20438;-58
2024/03/22 06:39:00;;;;;;;19.23;9.63;;;;;;;;;;5090042;28;20027;-58
2024/03/22 06:41:26;;;;;;;19.77;9.05;;;;;;;;;;5084220;28;20511;-58
2024/03/22 06:43:52;;;;;;;19.15;10.05;;;;;;;;;;5090301;28;20118;-58
2024/03/22 06:46:18;;;;;;;20.60;9.60;;;;;;;;;;5091164;28;20061;-59
2024/03/22 06:48:44;;;;;;;21.50;10.27;;;;;;;;;;5090822;28;20032;-54
2024/03/22 06:51:10;;;;;;;21.05;9.48;;;;;;;;;;5080148;28;20036;-58
2024/03/22 06:53:36;;;;;;;21.80;9.98;;;;;;;;;;5090071;28;20027;-58
2024/03/22 06:56:02;;;;;;;20.65;9.95;;;;;;;;;;5088689;28;20099;-58
2024/03/22 06:58:28;;;;;;;22.25;10.50;;;;;;;;;;5090907;28;20027;-59
2024/03/22 07:00:54;;;;;;;20.42;9.98;;;;;;;;;;5091200;28;20030;-59
2024/03/22 07:03:20;;;;;;;20.27;10.77;;;;;;;;;;5090053;28;20027;-58
2024/03/22 07:05:47;;;;;;;18.55;9.98;;;;;;;;;;5090554;28;20085;-58
2024/03/22 07:08:13;;;;;;;20.30;10.75;;;;;;;;;;5090953;28;20032;-58
2024/03/22 07:10:40;;;;;;;24.52;11.18;;;;;;;;;;5089468;28;20064;-59
2024/03/22 07:13:06;;;;;;;22.35;11.02;;;;;;;;;;5090266;28;20391;-58
2024/03/22 07:15:32;;;;;;;22.60;10.88;;;;;;;;;;5090925;28;20487;-59
2024/03/22 07:17:58;;;;;;;22.60;11.45;;;;;;;;;;5085536;28;20024;-58
2024/03/22 07:20:24;;;;;;;25.67;11.77;;;;;;;;;;5090576;28;20038;-57
2024/03/22 07:22:50;;;;;;;26.60;11.82;;;;;;;;;;5089070;28;20032;-57
2024/03/22 07:25:16;;;;;;;23.58;11.63;;;;;;;;;;5084510;28;20380;-57
2024/03/22 07:27:42;;;;;;;20.80;10.30;;;;;;;;;;5090050;28;20024;-57
2024/03/22 07:30:08;;;;;;;22.00;10.50;;;;;;;;;;5091927;28;20043;-58
2024/03/22 07:32:35;;;;;;;24.60;11.95;;;;;;;;;;5093928;28;20035;-58
2024/03/22 07:35:01;;;;;;;30.65;13.75;;;;;;;;;;5095914;28;20039;-57
2024/03/22 07:37:27;;;;;;;28.38;12.77;;;;;;;;;;5095571;28;20035;-57
2024/03/22 07:39:53;;;;;;;28.58;13.82;;;;;;;;;;5093828;28;20028;-56
2024/03/22 07:42:19;;;;;;;27.45;12.45;;;;;;;;;;5086468;28;20042;-57
2024/03/22 07:44:45;;;;;;;29.48;13.90;;;;;;;;;;5084718;28;20039;-57
2024/03/22 07:47:11;;;;;;;26.52;12.73;;;;;;;;;;5087116;28;20032;-58
2024/03/22 07:49:37;;;;;;;27.42;13.20;;;;;;;;;;5093972;28;20024;-58
2024/03/22 07:52:04;;;;;;;24.05;12.43;;;;;;;;;;5093794;28;20127;-58
2024/03/22 07:54:31;;;;;;;25.30;12.98;;;;;;;;;;5091858;28;20020;-56
2024/03/22 07:56:57;;;;;;;26.38;13.32;;;;;;;;;;5088618;28;20089;-58
2024/03/22 07:59:23;;;;;;;30.35;13.75;;;;;;;;;;5080689;28;20135;-57
2024/03/22 08:01:49;;;;;;;27.67;13.15;;;;;;;;;;5089963;28;20529;-56
2024/03/22 08:04:15;;;;;;;25.85;13.02;;;;;;;;;;5092129;28;20035;-57
2024/03/22 08:06:41;;;;;;;28.55;13.32;;;;;;;;;;5089366;28;20081;-58
2024/03/22 08:09:07;;;;;;;27.23;13.13;;;;;;;;;;5093781;28;20032;-58
2024/03/22 08:11:33;;;;;;;29.40;13.10;;;;;;;;;;5088041;28;20032;-57
2024/03/22 08:14:03;;;;;;;22.88;12.05;;;;;;;;;;5091626;28;20035;-57
2024/03/22 08:16:32;;;;;;;25.90;13.75;;;;;;;;;;5082101;28;20090;-57
2024/03/22 08:18:58;;;;;;;27.50;13.23;;;;;;;;;;5093492;28;20026;-57
2024/03/22 08:21:24;;;;;;;24.80;12.38;;;;;;;;;;5091826;28;20114;-58
2024/03/22 08:23:51;;;;;;;30.85;13.77;;;;;;;;;;5088312;28;20158;-56
2024/03/22 08:26:17;;;;;;;22.67;12.07;;;;;;;;;;5088806;28;20028;-58
2024/03/22 08:28:43;;;;;;;24.13;13.07;;;;;;;;;;5088906;28;20034;-58
2024/03/22 08:31:09;;;;;;;26.13;13.23;;;;;;;;;;5090542;28;20365;-58
2024/03/22 08:33:35;;;;;;;25.20;12.63;;;;;;;;;;5092917;28;20032;-58
2024/03/22 08:36:01;;;;;;;25.25;11.80;;;;;;;;;;5101412;28;20039;-58
2024/03/22 08:38:27;;;;;;;23.33;11.85;;;;;;;;;;5092935;28;20016;-57
2024/03/22 08:40:53;;;;;;;24.55;11.95;;;;;;;;;;5092236;28;20032;-53
2024/03/22 08:43:21;;;;;;;26.35;12.30;;;;;;;;;;5081316;28;20388;-56
2024/03/22 08:45:47;;;;;;;25.48;12.07;;;;;;;;;;5092748;28;20074;-57
2024/03/22 08:48:13;;;;;;;25.85;11.98;;;;;;;;;;5086357;28;20028;-57
2024/03/22 08:50:39;;;;;;;26.02;13.02;;;;;;;;;;5092679;28;20028;-56
2024/03/22 08:53:06;;;;;;;27.58;12.82;;;;;;;;;;5091986;28;20028;-58
2024/03/22 08:55:32;;;;;;;26.00;11.85;;;;;;;;;;5092908;28;20027;-58
2024/03/22 08:57:58;;;;;;;26.50;11.95;;;;;;;;;;5091308;28;20537;-58
2024/03/22 09:00:24;;;;;;;21.58;11.18;;;;;;;;;;5089515;28;21236;-59
2024/03/22 09:02:50;;;;;;;22.48;12.10;;;;;;;;;;5080993;28;20406;-59
2024/03/22 09:05:16;;;;;;;23.63;11.88;;;;;;;;;;5092591;28;20045;-58
2024/03/22 09:07:42;;;;;;;25.77;12.85;;;;;;;;;;5085340;28;20028;-59
2024/03/22 09:10:08;;;;;;;25.17;10.77;;;;;;;;;;5092513;28;20030;-59
2024/03/22 09:12:35;;;;;;;26.23;11.75;;;;;;;;;;5084762;28;20043;-58
2024/03/22 09:15:01;;;;;;;22.75;11.90;;;;;;;;;;5092391;28;20028;-58
2024/03/22 09:17:27;;;;;;;26.30;11.90;;;;;;;;;;5090551;28;20024;-58
2024/03/22 09:19:53;;;;;;;24.35;12.32;;;;;;;;;;5092313;28;20047;-57
2024/03/22 09:22:19;;;;;;;24.83;11.85;;;;;;;;;;5091425;28;20108;-57
2024/03/22 09:24:45;;;;;;;21.83;11.77;;;;;;;;;;5090191;28;20494;-57
2024/03/22 09:27:11;;;;;;;24.23;11.88;;;;;;;;;;5083016;28;20085;-58
2024/03/22 09:29:38;;;;;;;22.85;10.20;;;;;;;;;;5085107;28;20036;-58
2024/03/22 09:32:04;;;;;;;20.83;11.30;;;;;;;;;;5092099;28;20032;-56
2024/03/22 09:34:31;;;;;;;26.23;11.95;;;;;;;;;;5088114;28;20154;-57
2024/03/22 09:36:57;;;;;;;23.10;10.60;;;;;;;;;;5100529;28;20024;-58
2024/03/22 09:39:23;;;;;;;21.60;11.45;;;;;;;;;;5092315;28;20035;-54
2024/03/22 09:41:51;;;;;;;24.48;11.70;;;;;;;;;;5091383;28;20028;-54
2024/03/22 09:44:19;;;;;;;27.20;11.80;;;;;;;;;;5090904;28;20024;-55
2024/03/22 09:46:47;;;;;;;24.85;11.57;;;;;;;;;;5091420;28;20024;-55
2024/03/22 09:49:13;;;;;;;22.77;10.90;;;;;;;;;;5089929;28;20126;-55
2024/03/22 09:51:44;;;;;;;25.70;11.85;;;;;;;;;;5081430;28;20106;-55
2024/03/22 09:54:13;;;;;;;24.63;11.70;;;;;;;;;;5091694;28;20045;-55
2024/03/22 09:56:40;;;;;;;19.73;10.30;;;;;;;;;;5091979;28;20016;-55
2024/03/22 09:59:09;;;;;;;21.52;9.93;;;;;;;;;;5090137;28;20028;-55
2024/03/22 10:01:37;;;;;;;21.05;10.63;;;;;;;;;;5091716;28;20040;-55
2024/03/22 10:04:03;;;;;;;26.90;10.50;;;;;;;;;;5091225;28;20129;-55
2024/03/22 10:06:32;;;;;;;21.90;10.05;;;;;;;;;;5090853;28;20101;-55
2024/03/22 10:09:01;;;;;;;22.35;10.45;;;;;;;;;;5091409;28;20042;-55
2024/03/22 10:11:27;;;;;;;23.05;10.18;;;;;;;;;;5091040;28;20822;-55
2024/03/22 10:13:55;;;;;;;20.45;10.15;;;;;;;;;;5084909;28;20115;-56
2024/03/22 10:16:21;;;;;;;16.98;8.70;;;;;;;;;;5091423;28;20025;-55
2024/03/22 10:18:48;;;;;;;21.40;11.30;;;;;;;;;;5098758;28;20111;-56
2024/03/22 10:21:18;;;;;;;20.73;10.63;;;;;;;;;;5088580;28;20167;-56
2024/03/22 10:23:47;;;;;;;20.27;10.43;;;;;;;;;;5091108;28;20055;-55
2024/03/22 10:26:12;;;;;;;21.92;10.60;;;;;;;;;;5091540;28;20503;-55
2024/03/22 10:28:44;;;;;;;17.35;8.75;;;;;;;;;;5090062;28;20024;-55
2024/03/22 10:31:11;;;;;;;16.92;9.38;;;;;;;;;;5091400;28;20086;-55
2024/03/22 10:33:38;;;;;;;19.85;10.10;;;;;;;;;;5091041;28;20024;-55
2024/03/22 10:36:05;;;;;;;18.02;8.95;;;;;;;;;;5091296;28;20080;-56
2024/03/22 10:38:31;;;;;;;21.13;10.15;;;;;;;;;;5090461;28;20536;-56
2024/03/22 10:40:57;;;;;;;17.55;8.80;;;;;;;;;;5088214;28;20023;-56
2024/03/22 10:43:23;;;;;;;20.75;8.75;;;;;;;;;;5084540;28;20016;-57
2024/03/22 10:45:51;;;;;;;20.40;9.20;;;;;;;;;;5087861;28;20038;-55
2024/03/22 10:48:18;;;;;;;18.98;9.13;;;;;;;;;;5091144;28;20043;-56
2024/03/22 10:50:44;;;;;;;18.25;9.45;;;;;;;;;;5091385;28;20055;-56
2024/03/22 10:53:13;;;;;;;16.83;9.20;;;;;;;;;;5090236;28;20021;-56
2024/03/22 10:55:41;;;;;;;18.08;8.32;;;;;;;;;;5088666;28;20081;-56
2024/03/22 10:58:07;;;;;;;19.58;9.32;;;;;;;;;;5088596;28;20020;-56
2024/03/22 11:00:36;;;;;;;16.63;8.70;;;;;;;;;;5103224;28;20098;-56
2024/03/22 11:03:03;;;;;;;20.02;9.85;;;;;;;;;;5090903;28;20028;-56
2024/03/22 11:05:29;;;;;;;16.80;8.77;;;;;;;;;;5092918;28;20107;-56
2024/03/22 11:08:02;;;;;;;17.23;9.00;;;;;;;;;;5087926;28;20476;-55
2024/03/22 11:10:31;;;;;;;18.63;9.50;;;;;;;;;;5087225;28;20027;-56
2024/03/22 11:13:04;;;;;;;21.05;10.07;;;;;;;;;;5092700;28;20164;-56
2024/03/22 11:15:30;;;;;;;17.10;9.48;;;;;;;;;;5089632;28;20027;-55
2024/03/22 11:17:57;;;;;;;19.70;9.40;;;;;;;;;;5093232;28;20032;-56
2024/03/22 11:20:23;;;;;;;16.27;8.48;;;;;;;;;;5088413;28;20024;-56
2024/03/22 11:22:49;;;;;;;18.05;9.35;;;;;;;;;;5092711;28;20032;-57
2024/03/22 11:25:16;;;;;;;18.33;9.73;;;;;;;;;;5088883;28;20024;-56
2024/03/22 11:27:41;;;;;;;19.23;9.38;;;;;;;;;;5090574;28;20027;-56
2024/03/22 11:30:08;;;;;;;19.58;9.25;;;;;;;;;;5090270;28;20105;-55
2024/03/22 11:32:42;;;;;;;18.45;9.73;;;;;;;;;;5093994;28;20039;-56
2024/03/22 11:35:08;;;;;;;19.92;8.38;;;;;;;;;;5083416;28;20056;-56
2024/03/22 11:37:34;;;;;;;17.67;9.32;;;;;;;;;;5092475;28;20395;-57
2024/03/22 11:40:03;;;;;;;15.90;8.93;;;;;;;;;;5094074;28;20032;-55
2024/03/22 11:42:29;;;;;;;17.90;8.88;;;;;;;;;;5089025;28;20507;-56
2024/03/22 11:44:55;;;;;;;19.13;8.90;;;;;;;;;;5081621;28;20031;-56
2024/03/22 11:47:21;;;;;;;19.92;10.57;;;;;;;;;;5087683;28;20024;-56
2024/03/22 11:49:47;;;;;;;22.17;11.15;;;;;;;;;;5086151;28;20510;-56
2024/03/22 11:52:13;;;;;;;19.20;9.40;;;;;;;;;;5093267;28;20024;-56
2024/03/22 11:54:40;;;;;;;20.70;10.57;;;;;;;;;;5084251;28;20025;-56
2024/03/22 11:57:06;;;;;;;20.85;9.65;;;;;;;;;;5093927;28;20024;-58
2024/03/22 11:59:32;;;;;;;22.13;10.45;;;;;;;;;;5091386;28;20031;-56
2024/03/22 12:01:58;;;;;;;23.38;11.18;;;;;;;;;;5087706;28;20036;-56
2024/03/22 12:04:24;;;;;;;22.15;10.88;;;;;;;;;;5079102;28;20250;-56
2024/03/22 12:06:50;;;;;;;25.02;11.27;;;;;;;;;;5083956;28;20086;-56
2024/03/22 12:09:16;;;;;;;22.63;11.05;;;;;;;;;;5093682;28;20032;-56
2024/03/22 12:11:42;;;;;;;25.52;11.88;;;;;;;;;;5091984;28;20044;-56
2024/03/22 12:14:08;;;;;;;20.77;11.57;;;;;;;;;;5089904;28;20020;-57
2024/03/22 12:16:34;;;;;;;25.10;11.23;;;;;;;;;;5083865;28;20021;-56
2024/03/22 12:19:00;;;;;;;23.27;11.00;;;;;;;;;;5093521;28;20073;-57
2024/03/22 12:21:26;;;;;;;26.08;13.30;;;;;;;;;;5089739;28;20416;-56
2024/03/22 12:23:52;;;;;;;27.75;12.10;;;;;;;;;;5088462;28;20036;-57
2024/03/22 12:26:18;;;;;;;22.95;12.10;;;;;;;;;;5084737;28;20024;-57
2024/03/22 12:28:44;;;;;;;27.08;11.45;;;;;;;;;;5091981;28;20036;-57
2024/03/22 12:31:10;;;;;;;26.30;11.38;;;;;;;;;;5086760;28;20049;-57
2024/03/22 12:33:36;;;;;;;28.05;12.50;;;;;;;;;;5091389;28;20111;-56
2024/03/22 12:36:02;;;;;;;24.85;11.70;;;;;;;;;;5086551;28;20044;-56
2024/03/22 12:38:28;;;;;;;27.90;12.38;;;;;;;;;;5085669;28;20032;-56
2024/03/22 12:40:54;;;;;;;26.05;12.05;;;;;;;;;;5084195;28;20032;-57
2024/03/22 12:43:20;;;;;;;27.65;12.25;;;;;;;;;;5080974;28;20054;-57
2024/03/22 12:45:46;;;;;;;30.13;12.88;;;;;;;;;;5091141;28;20471;-56
2024/03/22 12:48:12;;;;;;;26.23;11.82;;;;;;;;;;5088223;28;20032;-56
2024/03/22 12:50:39;;;;;;;27.80;12.43;;;;;;;;;;5077716;28;20036;-57
2024/03/22 12:53:05;;;;;;;26.58;12.27;;;;;;;;;;5089172;28;20036;-57
2024/03/22 12:55:31;;;;;;;29.45;12.35;;;;;;;;;;5086718;28;20024;-56
2024/03/22 12:57:57;;;;;;;24.98;11.52;;;;;;;;;;5081751;28;20111;-56
2024/03/22 13:00:23;;;;;;;26.35;12.27;;;;;;;;;;5088874;28;20484;-56
2024/03/22 13:02:49;;;;;;;27.27;12.38;;;;;;;;;;5090492;28;20040;-57
2024/03/22 13:05:15;;;;;;;26.45;11.15;;;;;;;;;;5092351;28;20040;-57
2024/03/22 13:07:42;;;;;;;24.45;9.85;;;;;;;;;;5082875;28;20028;-53
2024/03/22 13:10:08;;;;;;;20.75;9.98;;;;;;;;;;5092182;28;20079;-55
2024/03/22 13:12:34;;;;;;;20.42;9.38;;;;;;;;;;5088486;28;20035;-53
2024/03/22 13:15:00;;;;;;;19.63;9.10;;;;;;;;;;5091186;28;20095;-54
2024/03/22 13:17:26;;;;;;;18.45;8.40;;;;;;;;;;5091681;28;20034;-57
2024/03/22 13:19:52;;;;;;;17.70;8.75;;;;;;;;;;5092029;28;20032;-54
2024/03/22 13:22:18;;;;;;;16.67;7.88;;;;;;;;;;5091862;28;20051;-54
2024/03/22 13:24:47;;;;;;;16.50;7.13;;;;;;;;;;5091670;28;20096;-53
2024/03/22 13:27:14;;;;;;;16.52;8.32;;;;;;;;;;5088831;28;20032;-53
2024/03/22 13:29:40;;;;;;;15.45;7.00;;;;;;;;;;5090491;28;20124;-54
2024/03/22 13:32:07;;;;;;;18.25;7.32;;;;;;;;;;5083084;28;20489;-54
2024/03/22 13:34:34;;;;;;;17.27;7.38;;;;;;;;;;5090168;28;20089;-53
2024/03/22 13:37:00;;;;;;;16.33;7.50;;;;;;;;;;5092088;28;20490;-54
2024/03/22 13:39:26;;;;;;;18.00;7.38;;;;;;;;;;5087410;28;20016;-53
2024/03/22 13:41:52;;;;;;;19.13;7.00;;;;;;;;;;5091704;28;20341;-54
2024/03/22 13:44:18;;;;;;;13.13;6.30;;;;;;;;;;5091319;28;20100;-54
2024/03/22 13:46:44;;;;;;;15.40;7.22;;;;;;;;;;5088683;28;20044;-53
2024/03/22 13:49:15;;;;;;;13.48;6.32;;;;;;;;;;5094028;28;20054;-53
2024/03/22 13:51:41;;;;;;;14.82;6.85;;;;;;;;;;5091380;28;20496;-53
2024/03/22 13:54:07;;;;;;;12.73;6.10;;;;;;;;;;5089746;28;20112;-55
2024/03/22 13:56:33;;;;;;;10.48;6.15;;;;;;;;;;5089850;28;20061;-54
2024/03/22 13:58:59;;;;;;;10.93;5.45;;;;;;;;;;5087749;28;20032;-54
2024/03/22 14:01:26;;;;;;;12.73;6.30;;;;;;;;;;5080384;28;20036;-55
2024/03/22 14:03:52;;;;;;;12.93;6.65;;;;;;;;;;5088751;28;20024;-53
2024/03/22 14:06:17;;;;;;;12.23;5.38;;;;;;;;;;5090932;28;20081;-55
2024/03/22 14:08:43;;;;;;;12.10;6.25;;;;;;;;;;5091319;28;20035;-55
2024/03/22 14:11:09;;;;;;;15.65;6.68;;;;;;;;;;5091184;28;20032;-53
2024/03/22 14:13:35;;;;;;;15.15;6.82;;;;;;;;;;5091774;28;20035;-53
2024/03/22 14:16:02;;;;;;;17.90;8.18;;;;;;;;;;5086844;28;20020;-54
2024/03/22 14:18:27;;;;;;;18.13;7.97;;;;;;;;;;5091637;28;20457;-55
2024/03/22 14:20:53;;;;;;;15.27;8.48;;;;;;;;;;5091255;28;20052;-57